WIMM/MES METAR and TAF weather

Enter ICAO airport designator
Station Type Date Time Source
WIMM METAR 2022/12/04 12:30 UTC NOAA

WIMM 041230Z 01004KT 9999 -DZ FEW011 SCT033 BKN037 27/24 Q1006


Station Type Date Time Source
WIMM Decoded METAR 2022/12/04 12:30 UTC NOAA

Medan / Polonia, Indonesia (WIMM) 03-34N 098-41E 25M
Dec 04, 2022 - 07:30 AM EST / 2022.12.04 1230 UTC
Wind: from the N (010 degrees) at 5 MPH (4 KT):0
Visibility: greater than 7 mile(s):0
Sky conditions: mostly cloudy
Weather: light drizzle
Temperature: 80 F (27 C)
Dew Point: 75 F (24 C)
Relative Humidity: 83%
Pressure (altimeter): 29.71 in. Hg (1006 hPa)
ob: WIMM 041230Z 01004KT 9999 -DZ FEW011 SCT033 BKN037 27/24 Q1006
cycle: 12

Station Type Date Time Source
WIMM TAF 2022/12/04 12:07 UTC NOAA

TAF WIMM 041100Z 0412/0512 VRB03KT 5000 HZ SCT018
TEMPO 0414/0418 VRB15KT 3000 TSRA FEW017CB BKN018
BECMG 0502/0504 03010KT 9999

Example: see airport list